createdAt,value
2019-03-16T00:01:59.029Z,6.33
2019-03-16T00:04:02.580Z,7.62
2019-03-16T00:08:09.057Z,6.10
2019-03-16T00:12:15.503Z,6.75
2019-03-16T00:16:21.848Z,8.50
2019-03-16T00:20:28.227Z,4.53
2019-03-16T00:24:34.609Z,5.97
2019-03-16T00:28:40.979Z,6.05
2019-03-16T00:32:47.328Z,4.17
2019-03-16T00:36:53.833Z,9.18
2019-03-16T00:38:57.399Z,6.97
2019-03-16T00:43:03.928Z,8.90
2019-03-16T00:45:09.961Z,4.75
2019-03-16T00:47:13.607Z,5.05
2019-03-16T00:49:18.713Z,8.15
2019-03-16T00:51:22.287Z,5.42
2019-03-16T00:55:28.623Z,7.97
2019-03-16T00:59:35.113Z,9.50
2019-03-16T01:01:38.741Z,6.37
2019-03-16T01:03:42.416Z,3.80
2019-03-16T01:05:45.968Z,7.37
2019-03-16T01:09:52.337Z,6.85
2019-03-16T01:13:58.697Z,10.75
2019-03-16T01:18:05.163Z,4.85
2019-03-16T01:22:13.041Z,5.90
2019-03-16T01:26:19.428Z,4.00
2019-03-16T01:28:22.993Z,3.70
2019-03-16T01:32:39.973Z,5.62
2019-03-16T01:34:34.570Z,6.00
2019-03-16T01:36:38.107Z,7.20
2019-03-16T01:38:41.700Z,4.25
2019-03-16T01:42:50.903Z,9.38
2019-03-16T01:44:54.521Z,7.22
2019-03-16T01:49:01.145Z,9.85
2019-03-16T01:51:04.793Z,4.60
2019-03-16T01:53:08.343Z,9.83
2019-03-16T01:57:14.779Z,8.30
2019-03-16T02:01:22.166Z,5.60
2019-03-16T02:03:25.806Z,4.95
2019-03-16T02:05:29.412Z,4.95
2019-03-16T02:09:35.859Z,5.92
2019-03-16T02:13:42.241Z,7.50
2019-03-16T02:17:48.635Z,6.70
2019-03-16T02:21:55.008Z,7.75
2019-03-16T02:26:01.344Z,9.93
2019-03-16T02:30:11.182Z,5.80
2019-03-16T02:32:14.755Z,6.95
2019-03-16T02:36:21.090Z,9.58
2019-03-16T02:40:27.439Z,8.15
2019-03-16T02:44:33.821Z,7.35
2019-03-16T02:48:40.207Z,8.78
2019-03-16T02:52:49.799Z,4.97
2019-03-16T02:54:51.782Z,10.25
2019-03-16T02:58:58.113Z,5.55
2019-03-16T03:03:04.692Z,7.58
2019-03-16T03:05:09.927Z,8.75
2019-03-16T03:07:15.123Z,6.40
2019-03-16T03:09:18.690Z,8.28
2019-03-16T03:13:25.036Z,8.25
2019-03-16T03:17:31.523Z,6.60
2019-03-16T03:19:36.607Z,6.97
2019-03-16T03:21:40.171Z,5.72
2019-03-16T03:25:46.512Z,6.00
2019-03-16T03:29:57.046Z,10.90
2019-03-16T03:31:58.132Z,3.67
2019-03-16T03:36:06.169Z,7.92
2019-03-16T03:40:13.298Z,10.20
2019-03-16T03:42:16.855Z,5.58
2019-03-16T03:46:23.207Z,8.65
2019-03-16T03:50:29.639Z,6.62
2019-03-16T03:52:33.239Z,5.45
2019-03-16T03:56:39.760Z,8.65
2019-03-16T03:58:43.387Z,10.68
2019-03-16T04:00:49.490Z,8.13
2019-03-16T04:02:53.243Z,9.18
2019-03-16T04:04:56.872Z,8.15
2019-03-16T04:07:00.572Z,10.40
2019-03-16T04:09:06.798Z,8.73
2019-03-16T04:11:10.415Z,10.13
2019-03-16T04:15:16.842Z,9.13
2019-03-16T04:17:20.397Z,14.18
2019-03-16T04:21:26.785Z,5.15
2019-03-16T04:25:33.192Z,9.73
2019-03-16T04:27:36.745Z,12.25
2019-03-16T04:31:43.859Z,11.20
2019-03-16T04:35:50.310Z,6.60
2019-03-16T04:37:53.944Z,10.72
2019-03-16T04:39:57.514Z,10.85
2019-03-16T04:44:03.965Z,7.50
2019-03-16T04:46:07.531Z,7.45
2019-03-16T04:50:14.036Z,10.93
2019-03-16T04:52:17.632Z,10.00
2019-03-16T04:54:21.203Z,6.60
2019-03-16T04:58:27.558Z,9.28
2019-03-16T05:02:33.932Z,11.50
2019-03-16T05:04:42.506Z,7.97
2019-03-16T05:06:42.712Z,15.23
2019-03-16T05:10:49.085Z,10.72
2019-03-16T05:14:55.427Z,10.85
2019-03-16T05:19:01.805Z,7.03
2019-03-16T05:23:08.159Z,11.35
2019-03-16T05:27:14.939Z,9.30
2019-03-16T05:29:18.490Z,11.68
2019-03-16T05:33:24.941Z,11.85
2019-03-16T05:37:31.346Z,12.00
2019-03-16T05:39:34.903Z,11.80
2019-03-16T05:43:41.277Z,14.00
2019-03-16T05:47:47.620Z,13.75
2019-03-16T05:51:53.979Z,13.03
2019-03-16T05:56:00.356Z,16.02
2019-03-16T06:00:15.633Z,9.83
2019-03-16T06:02:19.250Z,11.20
2019-03-16T06:04:22.835Z,11.88
2019-03-16T06:08:30.830Z,10.45
2019-03-16T06:12:37.202Z,10.65
2019-03-16T06:16:43.682Z,15.55
2019-03-16T06:18:47.244Z,11.80
2019-03-16T06:22:53.686Z,10.13
2019-03-16T06:24:57.240Z,9.00
2019-03-16T06:29:03.782Z,14.23
2019-03-16T06:33:10.175Z,10.00
2019-03-16T06:37:18.309Z,13.55
2019-03-16T06:39:21.888Z,10.43
2019-03-16T06:43:28.250Z,14.87
2019-03-16T06:47:34.609Z,13.18
2019-03-16T06:51:40.974Z,12.43
2019-03-16T06:55:47.347Z,12.28
2019-03-16T06:59:53.962Z,17.73
2019-03-16T07:01:57.563Z,13.43
2019-03-16T07:06:04.067Z,18.67
2019-03-16T07:08:07.649Z,12.45
2019-03-16T07:12:15.623Z,13.62
2019-03-16T07:16:21.992Z,10.98
2019-03-16T07:20:28.485Z,9.70
2019-03-16T07:22:32.073Z,14.33
2019-03-16T07:26:38.461Z,11.55
2019-03-16T07:30:44.911Z,15.48
2019-03-16T07:32:48.477Z,10.93
2019-03-16T07:36:54.914Z,13.58
2019-03-16T07:41:01.544Z,12.50
2019-03-16T07:43:05.210Z,13.48
2019-03-16T07:45:10.213Z,17.10
2019-03-16T07:47:15.440Z,14.10
2019-03-16T07:49:19.028Z,12.05
2019-03-16T07:53:25.380Z,7.90
2019-03-16T07:57:39.981Z,10.90
2019-03-16T07:59:37.399Z,13.18
2019-03-16T08:01:41.065Z,14.07
2019-03-16T08:05:47.421Z,10.38
2019-03-16T08:09:53.820Z,12.37
2019-03-16T08:14:00.247Z,11.85
2019-03-16T08:16:03.909Z,13.78
2019-03-16T08:18:08.087Z,10.15
2019-03-16T08:20:12.289Z,16.70
2019-03-16T08:22:15.846Z,11.93
2019-03-16T08:26:22.392Z,12.73
2019-03-16T08:28:25.947Z,11.12
2019-03-16T08:32:32.425Z,12.20
2019-03-16T08:34:36.027Z,15.63
2019-03-16T08:38:42.441Z,10.20
2019-03-16T08:42:51.331Z,12.82
2019-03-16T08:44:54.186Z,8.75
2019-03-16T08:49:00.535Z,15.18
2019-03-16T08:53:07.211Z,13.88
2019-03-16T08:57:13.935Z,16.60
2019-03-16T08:59:17.493Z,12.28
2019-03-16T09:03:23.960Z,11.97
2019-03-16T09:05:27.520Z,12.50
2019-03-16T09:09:33.903Z,15.58
2019-03-16T09:13:41.002Z,11.90
2019-03-16T09:15:48.499Z,12.68
2019-03-16T09:17:56.021Z,11.78
2019-03-16T09:19:59.878Z,12.43
2019-03-16T09:22:03.444Z,10.48
2019-03-16T09:26:09.869Z,18.30
2019-03-16T09:30:18.266Z,16.15
2019-03-16T09:32:22.099Z,13.80
2019-03-16T09:34:25.594Z,9.60
2019-03-16T09:38:31.938Z,13.83
2019-03-16T09:42:38.415Z,14.35
2019-03-16T09:46:44.845Z,14.95
2019-03-16T09:50:51.322Z,14.70
2019-03-16T09:54:57.687Z,12.53
2019-03-16T09:59:05.511Z,9.85
2019-03-16T10:03:12.013Z,12.03
2019-03-16T10:07:18.416Z,14.80
2019-03-16T10:11:24.829Z,10.43
2019-03-16T10:15:31.270Z,10.32
2019-03-16T10:19:37.766Z,9.35
2019-03-16T10:23:44.224Z,8.30
2019-03-16T10:27:50.707Z,8.13
2019-03-16T10:29:54.368Z,12.15
2019-03-16T10:34:01.030Z,10.72
2019-03-16T10:36:04.676Z,11.15
2019-03-16T10:40:15.485Z,9.00
2019-03-16T10:42:19.179Z,10.13
2019-03-16T10:44:22.751Z,14.45
2019-03-16T10:48:29.116Z,11.00
2019-03-16T10:52:35.458Z,13.28
2019-03-16T10:56:41.834Z,11.15
2019-03-16T11:00:49.867Z,8.00
2019-03-16T11:04:56.218Z,13.22
2019-03-16T11:09:02.711Z,11.50
2019-03-16T11:11:06.340Z,8.85
2019-03-16T11:15:13.925Z,10.95
2019-03-16T11:17:17.468Z,9.30
2019-03-16T11:21:23.847Z,10.82
2019-03-16T11:25:30.235Z,9.65
2019-03-16T11:29:36.600Z,8.45
2019-03-16T11:33:42.980Z,7.47
2019-03-16T11:37:49.389Z,10.58
2019-03-16T11:41:55.727Z,9.13
2019-03-16T11:46:02.103Z,10.72
2019-03-16T11:50:12.033Z,8.35
2019-03-16T11:52:15.611Z,8.85
2019-03-16T11:56:22.020Z,7.90
2019-03-16T12:00:28.394Z,9.48
2019-03-16T12:04:34.807Z,7.10
2019-03-16T12:08:41.288Z,9.28
2019-03-16T12:10:44.934Z,6.58
2019-03-16T12:14:51.302Z,9.98
2019-03-16T12:18:57.646Z,8.10
2019-03-16T12:23:04.104Z,10.53
2019-03-16T12:27:10.671Z,6.40
2019-03-16T12:31:17.050Z,6.05
2019-03-16T12:35:23.419Z,9.30
2019-03-16T12:39:29.767Z,9.65
2019-03-16T12:43:36.119Z,8.70
2019-03-16T12:47:42.507Z,9.88
2019-03-16T12:51:48.897Z,7.60
2019-03-16T12:55:55.566Z,5.55
2019-03-16T12:57:59.155Z,7.90
2019-03-16T13:02:05.623Z,8.00
2019-03-16T13:04:09.228Z,9.38
2019-03-16T13:08:15.759Z,10.48
2019-03-16T13:12:22.677Z,11.50
2019-03-16T13:16:29.036Z,6.53
2019-03-16T13:20:35.531Z,4.70
2019-03-16T13:24:44.670Z,4.40
2019-03-16T13:26:48.218Z,4.90
2019-03-16T13:30:54.611Z,7.08
2019-03-16T13:35:00.996Z,4.37
2019-03-16T13:39:07.494Z,5.97
2019-03-16T13:41:11.628Z,6.72
2019-03-16T13:43:15.818Z,6.40
2019-03-16T13:45:20.205Z,8.63
2019-03-16T13:47:24.402Z,4.58
2019-03-16T13:49:28.757Z,7.50
2019-03-16T13:51:32.329Z,6.17
2019-03-16T13:55:39.010Z,6.83
2019-03-16T13:59:45.618Z,9.68
2019-03-16T14:03:52.014Z,8.33
2019-03-16T14:07:58.490Z,6.30
2019-03-16T14:10:02.246Z,3.65
2019-03-16T14:14:08.628Z,4.58
2019-03-16T14:18:14.953Z,5.10
2019-03-16T14:22:21.345Z,4.28
2019-03-16T14:26:27.955Z,7.00
2019-03-16T14:30:40.919Z,5.80
2019-03-16T14:32:39.658Z,7.17
2019-03-16T14:36:46.033Z,4.83
2019-03-16T14:40:52.480Z,9.60
2019-03-16T14:44:59.041Z,5.45
2019-03-16T14:49:05.484Z,11.85
2019-03-16T14:53:11.980Z,5.33
2019-03-16T14:57:18.486Z,6.25
2019-03-16T15:01:24.860Z,6.65
2019-03-16T15:05:31.206Z,5.53
2019-03-16T15:09:37.685Z,9.68
2019-03-16T15:13:44.061Z,7.15
2019-03-16T15:17:50.405Z,6.97
2019-03-16T15:21:56.756Z,9.45
2019-03-16T15:26:05.906Z,7.35
2019-03-16T15:28:09.474Z,10.80
2019-03-16T15:32:17.152Z,7.17
2019-03-16T15:34:20.700Z,10.30
2019-03-16T15:38:27.207Z,11.85
2019-03-16T15:40:30.803Z,12.55
2019-03-16T15:44:38.274Z,11.20
2019-03-16T15:46:42.042Z,15.55
2019-03-16T15:48:46.517Z,18.00
2019-03-16T15:52:52.951Z,14.30
2019-03-16T15:56:59.394Z,17.05
2019-03-16T16:01:05.907Z,15.53
2019-03-16T16:03:09.528Z,20.17
2019-03-16T16:07:15.885Z,11.63
2019-03-16T16:11:22.402Z,15.70
2019-03-16T16:13:26.021Z,20.23
2019-03-16T16:17:38.094Z,14.50
2019-03-16T16:19:43.622Z,14.75
2019-03-16T16:21:48.641Z,12.30
2019-03-16T16:23:55.710Z,11.05
2019-03-16T16:26:02.300Z,13.30
2019-03-16T16:28:05.867Z,20.30
2019-03-16T16:32:13.775Z,14.40
2019-03-16T16:36:20.231Z,13.25
2019-03-16T16:40:26.702Z,19.30
2019-03-16T16:42:30.279Z,14.20
2019-03-16T16:46:36.632Z,18.40
2019-03-16T16:50:43.099Z,22.10
2019-03-16T16:52:46.662Z,24.98
2019-03-16T16:56:53.107Z,41.33
2019-03-16T16:58:56.762Z,99.80
2019-03-16T17:01:04.323Z,110.45
2019-03-16T17:03:07.886Z,188.78
2019-03-16T17:07:14.384Z,88.55
2019-03-16T17:11:20.790Z,348.75
2019-03-16T17:13:24.413Z,160.10
2019-03-16T17:17:35.507Z,135.82
2019-03-16T17:19:37.731Z,51.92
2019-03-16T17:21:41.302Z,29.40
2019-03-16T17:25:47.665Z,39.05
2019-03-16T17:29:54.110Z,23.57
2019-03-16T17:34:00.493Z,45.15
2019-03-16T17:38:06.945Z,57.05
2019-03-16T17:42:14.832Z,52.20
2019-03-16T17:46:21.287Z,41.20
2019-03-16T17:50:27.757Z,26.73
2019-03-16T17:52:31.396Z,32.95
2019-03-16T17:54:34.963Z,29.12
2019-03-16T17:58:41.363Z,31.45
2019-03-16T18:02:51.693Z,21.62
2019-03-16T18:04:53.038Z,21.73
2019-03-16T18:09:01.752Z,24.27
2019-03-16T18:11:05.061Z,25.65
2019-03-16T18:13:11.216Z,31.70
2019-03-16T18:15:19.324Z,35.35
2019-03-16T18:17:22.878Z,30.95
2019-03-16T18:21:29.372Z,30.32
2019-03-16T18:23:32.998Z,34.58
2019-03-16T18:25:37.811Z,34.83
2019-03-16T18:27:41.894Z,34.88
2019-03-16T18:29:45.556Z,35.43
2019-03-16T18:31:49.272Z,37.03
2019-03-16T18:33:52.966Z,39.80
2019-03-16T18:35:56.522Z,43.10
2019-03-16T18:38:00.175Z,43.08
2019-03-16T18:40:04.230Z,42.43
2019-03-16T18:42:07.900Z,42.53
2019-03-16T18:44:26.336Z,42.10
2019-03-16T18:46:30.045Z,41.88
2019-03-16T18:48:33.725Z,39.15
2019-03-16T18:50:37.367Z,38.85
2019-03-16T18:52:40.928Z,43.52
2019-03-16T18:56:47.323Z,43.60
2019-03-16T19:00:53.836Z,43.85
2019-03-16T19:02:57.423Z,39.60
2019-03-16T19:05:01.024Z,39.45
2019-03-16T19:09:08.709Z,41.50
2019-03-16T19:11:12.434Z,41.18
2019-03-16T19:13:16.259Z,42.60
2019-03-16T19:15:20.147Z,40.30
2019-03-16T19:17:23.790Z,42.50
2019-03-16T19:19:27.393Z,41.90
2019-03-16T19:23:33.887Z,38.50
2019-03-16T19:25:37.692Z,40.83
2019-03-16T19:27:41.335Z,41.50
2019-03-16T19:29:45.091Z,41.37
2019-03-16T19:31:48.727Z,49.20
2019-03-16T19:33:53.049Z,45.25
2019-03-16T19:35:56.673Z,40.17
2019-03-16T19:40:03.174Z,42.43
2019-03-16T19:44:09.627Z,46.60
2019-03-16T19:46:13.195Z,54.93
2019-03-16T19:50:19.703Z,46.40
2019-03-16T19:52:23.299Z,61.55
2019-03-16T19:56:29.679Z,53.83
2019-03-16T20:00:36.058Z,57.40
2019-03-16T20:04:44.155Z,52.67
2019-03-16T20:06:47.743Z,51.63
2019-03-16T20:11:05.972Z,50.85
2019-03-16T20:12:59.352Z,50.83
2019-03-16T20:17:05.773Z,54.45
2019-03-16T20:21:12.119Z,53.40
2019-03-16T20:25:21.308Z,58.80
2019-03-16T20:27:24.866Z,54.03
2019-03-16T20:31:31.306Z,60.23
2019-03-16T20:33:34.874Z,61.90
2019-03-16T20:37:41.281Z,65.28
2019-03-16T20:41:47.635Z,64.92
2019-03-16T20:45:54.063Z,53.35
2019-03-16T20:50:00.715Z,60.92
2019-03-16T20:54:07.500Z,52.83
2019-03-16T20:56:11.134Z,52.20
2019-03-16T20:58:14.717Z,49.27
2019-03-16T21:02:23.904Z,51.48
2019-03-16T21:06:30.535Z,54.63
2019-03-16T21:08:34.128Z,59.88
2019-03-16T21:12:40.522Z,58.42
2019-03-16T21:14:44.202Z,64.80
2019-03-16T21:18:50.575Z,67.45
2019-03-16T21:22:56.941Z,76.72
2019-03-16T21:27:03.311Z,89.35
2019-03-16T21:31:09.688Z,80.53
2019-03-16T21:35:16.267Z,55.08
2019-03-16T21:37:21.483Z,53.23
2019-03-16T21:39:25.172Z,49.65
2019-03-16T21:43:31.618Z,43.75
2019-03-16T21:45:35.175Z,41.13
2019-03-16T21:49:41.679Z,34.78
2019-03-16T21:51:45.407Z,39.10
2019-03-16T21:53:49.108Z,30.17
2019-03-16T21:57:55.452Z,27.22
2019-03-16T22:02:01.831Z,31.10
2019-03-16T22:06:08.712Z,32.98
2019-03-16T22:08:12.322Z,35.50
2019-03-16T22:10:16.829Z,30.88
2019-03-16T22:12:20.478Z,35.20
2019-03-16T22:14:24.067Z,33.25
2019-03-16T22:18:30.484Z,32.28
2019-03-16T22:22:36.959Z,33.28
2019-03-16T22:24:40.521Z,34.92
2019-03-16T22:28:46.875Z,32.98
2019-03-16T22:32:53.251Z,29.92
2019-03-16T22:36:59.885Z,29.00
2019-03-16T22:41:06.443Z,27.67
2019-03-16T22:43:10.097Z,28.73
2019-03-16T22:45:14.548Z,28.57
2019-03-16T22:47:18.103Z,31.55
2019-03-16T22:51:24.539Z,29.70
2019-03-16T22:55:31.081Z,28.27
2019-03-16T22:57:34.656Z,27.27
2019-03-16T23:01:41.315Z,27.22
2019-03-16T23:03:44.960Z,32.20
2019-03-16T23:05:48.687Z,28.80
2019-03-16T23:07:52.309Z,28.87
2019-03-16T23:11:58.663Z,28.77
2019-03-16T23:16:05.187Z,30.65
2019-03-16T23:18:08.965Z,35.15
2019-03-16T23:20:12.693Z,33.28
2019-03-16T23:22:16.258Z,33.05
2019-03-16T23:26:22.692Z,30.48
2019-03-16T23:30:29.194Z,26.60
2019-03-16T23:32:32.834Z,29.55
2019-03-16T23:36:39.316Z,29.65
2019-03-16T23:38:42.908Z,30.95
2019-03-16T23:42:49.500Z,30.00
2019-03-16T23:44:53.226Z,28.70
2019-03-16T23:46:56.765Z,28.67
2019-03-16T23:51:03.142Z,28.55
2019-03-16T23:55:10.124Z,32.95
2019-03-16T23:57:13.807Z,30.45
2019-03-16T23:59:17.532Z,33.88
